Latest Coastal Weather Observations for Middle Percy Island

IDQ60701

Issued at 7:12 pm EST Wednesday 29 March 2017 (issued every 10 minutes, with the page automatically refreshed every 10 minutes)

About coastal observations | Map of coastal stations | Coastal observations for QLD | Marine services | Other Formats
Station Details ID: 200001 Name: MIDDLE PERCY ISLAND Lat: -21.66 Lon: 150.27 Height: 208.7 m
Data from the previous 72 hours. | See also: Recent months at Middle Percy Island
Date/Time
EST
Temp
°C
Wind Pressure Rain since
9am
mm
Weather Cloud Vis
km
Sea
Height
m
Swell
Dir  Spd
kts
Gust
kts
hPa Trend Height
m
Period
s
Dir
29/07:00pm 26.4 NNE 28 41 1004.5 - 8.2 - - - - - - -
29/06:30pm 26.5 NNE 27 42 1004.9 - 8.2 - - - - - - -
29/06:00pm 26.5 NNE 27 38 1004.6 - 8.2 - - - - - - -
29/05:30pm 26.5 NNE 27 38 1004.3 - 8.2 - - - - - - -
29/05:00pm 26.5 NNE 26 42 1004.3 - 8.2 - - - - - - -
29/04:30pm 26.5 NNE 25 44 1004.0 - 8.2 - - - - - - -
29/04:00pm 26.5 NNE 24 35 1003.3 - 8.2 - - - - - - -
29/03:30pm 26.6 NNE 26 39 1003.7 - 8.2 - - - - - - -
29/03:00pm 26.6 NNE 24 36 1003.7 - 8.2 - - - - - - -
29/02:30pm 26.6 NNE 28 41 1003.7 - 8.2 - - - - - - -
29/02:00pm 26.5 NNE 24 37 1003.9 - 8.2 - - - - - - -
29/01:30pm 26.6 NNE 22 36 1004.3 - 8.2 - - - - - - -
29/01:00pm 26.6 NNE 24 37 1004.7 - 8.2 - - - - - - -
29/12:30pm 26.6 NNE 22 34 1005.1 - 8.2 - - - - - - -
29/12:00pm 26.4 NNE 22 41 1005.5 - 8.2 - - - - - - -
29/11:30am 26.4 NNE 24 36 1005.7 - 8.2 - - - - - - -
29/11:00am 26.1 NNE 20 30 1006.1 - 8.2 - - - - - - -
29/10:30am 26.1 NNE 23 34 1006.1 - 8.2 - - - - - - -
29/10:00am 25.9 NNE 23 38 1007.0 - 7.0 - - - - - - -
29/09:30am 25.6 NNE 21 36 1006.8 - 5.0 - - - - - - -
29/09:19am 25.3 NNE 16 34 1006.6 - 1.0 - - - - - - -
29/09:00am 24.7 NNE 17 27 1007.2 - 119.4 - - - - - - -
29/08:30am 23.7 NNE 23 34 1007.0 - 119.4 - - - - - - -
29/08:00am 23.8 N 21 35 1006.0 - 119.4 - - - - - - -
29/07:34am 25.8 NNE 20 36 1005.6 - 112.0 - - - - - - -
29/07:30am 25.4 NNE 15 26 1006.0 - 111.8 - - - - - - -
29/07:04am 24.1 NNE 24 41 1005.7 - 111.4 - - - - - - -
29/07:00am 24.6 NNE 27 47 1005.6 - 111.4 - - - - - - -
29/06:58am 24.5 NNE 30 48 1005.6 - 111.4 - - - - - - -
29/06:52am 24.3 NE 30 48 1004.5 - 111.0 - - - - - - -
29/06:51am 24.1 NE 29 48 1003.7 - 111.0 - - - - - - -
29/06:50am 24.2 NE 28 48 1003.5 - 111.0 - - - - - - -
29/06:30am 25.8 NE 23 37 1005.2 - 105.2 - - - - - - -
29/06:00am 25.6 NE 25 38 1005.1 - 104.0 Rain - - - - - -
29/05:30am 25.9 NNE 25 39 1004.5 - 101.6 - - - - - - -
29/05:00am 25.8 NNE 24 35 1004.5 - 100.4 - - - - - - -
29/04:30am 25.8 NE 26 36 1003.6 - 99.4 - - - - - - -
29/04:00am 26.0 NE 27 43 1003.4 - 99.0 - - - - - - -
29/03:30am 25.8 NE 26 38 1003.4 - 98.6 - - - - - - -
29/03:00am 26.0 NNE 25 37 1003.5 - 98.4 Recent precip. - - - - - -
29/02:30am 26.0 NE 24 39 1003.7 - 98.2 - - - - - - -
29/02:00am 25.9 NE 23 36 1003.9 - 98.0 - - - - - - -
29/01:30am 25.9 NE 24 37 1004.4 - 97.4 - - - - - - -
29/01:00am 26.0 NE 23 39 1004.8 - 95.8 - - - - - - -
29/12:30am 26.1 NE 20 34 1005.4 - 94.4 - - - - - - -
29/12:00am 26.0 NE 24 40 1004.2 - 93.0 Rain - - - - - -
 
Date/Time
EST
Temp
°C
Wind Pressure Rain since
9am
mm
Weather Cloud Vis
km
Sea
Height
m
Swell
Dir  Spd
kts
Gust
kts
hPa Trend Height
m
Period
s
Dir
28/11:30pm 26.0 NE 20 34 1005.2 - 91.2 - - - - - - -
28/11:00pm 26.0 NE 25 40 1005.0 - 89.2 - - - - - - -
28/10:30pm 26.0 NE 24 42 1004.8 - 87.8 - - - - - - -
28/10:00pm 26.0 NE 25 38 1004.9 - 85.8 - - - - - - -
28/09:30pm 26.1 NE 25 40 1004.6 - 84.0 - - - - - - -
28/09:00pm 26.1 NE 28 39 1004.1 - 82.2 Rain - - - - - -
28/08:30pm 26.0 NE 29 46 1003.7 - 79.8 - - - - - - -
28/08:00pm 26.2 NE 29 43 1003.4 - 74.8 - - - - - - -
28/07:30pm 26.1 NE 26 41 1003.0 - 72.8 - - - - - - -
28/07:00pm 26.1 NE 26 45 1002.6 - 71.2 - - - - - - -
28/06:30pm 25.8 ENE 23 40 1002.2 - 68.8 - - - - - - -
28/06:00pm 26.0 ENE 21 37 1002.2 - 64.8 Rain - - - - - -
28/05:30pm 25.9 ENE 23 35 1001.8 - 62.4 - - - - - - -
28/05:00pm 26.0 NE 24 41 1001.7 - 59.4 - - - - - - -
28/04:30pm 26.0 NE 28 40 1001.2 - 57.0 - - - - - - -
28/04:00pm 26.1 NE 26 42 1001.1 - 55.4 - - - - - - -
28/03:30pm 26.0 NE 28 46 1001.0 - 54.0 - - - - - - -
28/03:00pm 25.9 NE 26 43 1000.4 - 52.6 Rain - - - - - -
28/02:30pm 25.4 NE 24 41 1000.4 - 50.8 - - - - - - -
28/02:17pm 25.5 NE 27 52 1000.5 - 46.4 - - - - - - -
28/02:00pm 25.6 ENE 25 40 1000.8 - 44.4 - - - - - - -
28/01:30pm 24.5 NE 25 37 1001.3 - 39.6 - - - - - - -
28/01:00pm 25.8 ENE 21 32 1002.0 - 15.4 - - - - - - -
28/12:30pm 25.1 ENE 21 35 1002.3 - 14.0 - - - - - - -
28/12:25pm 25.1 NE 23 35 1002.2 - 14.0 - - - - - - -
28/12:24pm 25.1 NE 23 35 1001.9 - 14.0 - - - - - - -
28/12:19pm 25.0 NE 22 36 1002.4 - 13.4 - - - - - - -
28/12:17pm 24.8 ENE 22 36 1001.9 - 12.8 - - - - - - -
28/12:00pm 25.3 E 15 30 1002.4 - 7.6 Rain - - - - - -
28/11:30am 25.4 ENE 22 36 1002.8 - 4.4 - - - - - - -
28/11:00am 25.4 ENE 15 28 1003.6 - 3.0 - - - - - - -
28/10:47am 25.2 E 15 33 1003.6 - 3.0 - - - - - - -
28/10:30am 25.3 E 14 26 1004.0 - 2.4 - - - - - - -
28/10:00am 25.4 E 16 31 1004.3 - 0.8 - - - - - - -
28/09:30am 25.3 ENE 17 29 1004.5 - 0.4 - - - - - - -
28/09:00am 24.8 ENE 17 32 1004.4 - 46.2 Rain - - - - - -
28/08:30am 24.6 ENE 24 40 1003.9 - 44.0 - - - - - - -
28/08:00am 24.7 E 15 31 1003.5 - 41.6 - - - - - - -
28/07:45am 24.7 E 15 37 1003.3 - 39.6 - - - - - - -
28/07:30am 24.9 E 13 32 1003.4 - 36.2 - - - - - - -
28/07:00am 25.2 E 15 29 1003.0 - 33.0 - - - - - - -
28/06:30am 25.2 ENE 16 31 1002.6 - 32.6 - - - - - - -
28/06:03am 25.3 ENE 15 33 1002.3 - 31.8 - - - - - - -
28/06:00am 25.3 ENE 14 29 1002.4 - 31.6 Rain - - - - - -
28/05:30am 25.9 E 14 29 1001.9 - 30.6 - - - - - - -
28/05:00am 25.6 E 15 32 1001.7 - 30.6 - - - - - - -
28/04:51am 25.6 E 15 32 1001.6 - 30.6 - - - - - - -
28/04:30am 25.5 E 14 31 1001.7 - 30.4 - - - - - - -
28/04:00am 25.4 ESE 12 31 1001.6 - 30.4 - - - - - - -
28/03:45am 25.4 ESE 15 33 1001.7 - 30.4 - - - - - - -
28/03:30am 25.2 ESE 14 28 1001.4 - 30.4 - - - - - - -
28/03:07am 25.0 ESE 15 28 1001.3 - 30.4 - - - - - - -
28/03:00am 24.8 ESE 12 23 1001.5 - 30.4 - - - - - - -
28/02:30am 25.0 ESE 17 31 1001.9 - 30.4 - - - - - - -
28/02:00am 25.3 ESE 18 36 1002.6 - 30.4 - - - - - - -
28/01:30am 25.5 ESE 18 33 1002.6 - 30.4 - - - - - - -
28/01:04am 25.1 ESE 15 27 1003.0 - 30.4 - - - - - - -
28/01:00am 24.9 ESE 12 27 1003.0 - 30.4 - - - - - - -
28/12:36am 24.9 ESE 15 29 1002.9 - 30.4 - - - - - - -
28/12:30am 24.2 ESE 14 30 1003.0 - 30.2 - - - - - - -
28/12:00am 24.9 E 18 35 1003.3 - 27.2 Rain - - - - - -
 
Date/Time
EST
Temp
°C
Wind Pressure Rain since
9am
mm
Weather Cloud Vis
km
Sea
Height
m
Swell
Dir  Spd
kts
Gust
kts
hPa Trend Height
m
Period
s
Dir
27/11:59pm 25.1 ESE 19 35 1003.3 - 27.2 - - - - - - -
27/11:30pm 25.5 ESE 28 41 1003.3 - 23.2 - - - - - - -
27/11:00pm 25.4 ESE 27 39 1003.4 - 22.0 - - - - - - -
27/10:30pm 25.0 ESE 21 35 1004.0 - 21.6 - - - - - - -
27/10:15pm 25.1 ESE 20 43 1003.4 - 21.2 - - - - - - -
27/10:07pm 25.0 E 16 33 1004.0 - 19.8 - - - - - - -
27/10:03pm 25.0 ESE 17 34 1004.0 - 19.8 - - - - - - -
27/10:00pm 25.3 ESE 21 35 1004.0 - 18.8 - - - - - - -
27/09:30pm 25.9 ESE 29 41 1003.9 - 16.6 - - - - - - -
27/09:00pm 25.8 SE 25 39 1004.1 - 16.6 Rain - - - - - -
27/08:30pm 25.4 ESE 22 38 1004.1 - 16.2 - - - - - - -
27/08:00pm 25.4 ESE 17 32 1003.8 - 15.8 - - - - - - -
27/07:30pm 25.3 ESE 20 33 1003.6 - 15.6 - - - - - - -
27/07:03pm 25.3 ESE 17 41 1003.2 - 15.6 - - - - - - -
27/07:00pm 25.3 ESE 16 29 1003.2 - 15.6 - - - - - - -
27/06:30pm 25.3 ESE 20 34 1002.9 - 15.6 - - - - - - -
27/06:00pm 24.8 ESE 18 28 1002.7 - 15.4 Recent precip. - - - - - -
27/05:51pm 24.9 ESE 15 37 1002.9 - 15.4 - - - - - - -
27/05:30pm 25.2 ESE 14 30 1002.9 - 15.2 - - - - - - -
27/05:00pm 25.1 ESE 16 36 1002.6 - 15.0 - - - - - - -
27/04:30pm 25.2 ESE 21 34 1002.4 - 14.2 - - - - - - -
27/04:01pm 25.0 ESE 18 37 1002.4 - 13.8 - - - - - - -
27/04:00pm 25.0 ESE 17 37 1002.5 - 13.8 - - - - - - -
27/03:30pm 25.5 ESE 25 40 1002.3 - 13.2 - - - - - - -
27/03:00pm 25.1 ESE 24 39 1002.4 - 12.2 Rain - - - - - -
27/02:30pm 25.3 SE 23 35 1002.4 - 12.0 - - - - - - -
27/02:00pm 25.1 ESE 18 31 1002.6 - 10.8 - - - - - - -
27/01:30pm 25.1 ESE 20 35 1003.0 - 10.6 - - - - - - -
27/01:00pm 24.8 ESE 25 36 1003.3 - 10.0 - - - - - - -
27/12:30pm 25.3 ESE 28 41 1003.7 - 5.4 - - - - - - -
27/12:00pm 25.6 SE 33 46 1004.2 - 4.6 Recent precip. - - - - - -
27/11:30am 26.1 SE 33 45 1004.3 - 0.2 - - - - - - -
27/11:00am 26.7 SE 32 43 1004.9 - 0.2 - - - - - - -
27/10:34am 26.5 SE 28 40 1005.3 - 0.2 - - - - - - -
27/10:30am 26.6 ESE 27 36 1005.5 - 0.2 - - - - - - -
27/10:16am 26.4 SE 28 39 1005.6 - 0.2 - - - - - - -
27/10:00am 26.3 SE 29 37 1005.7 - 0.0 - - - - - - -
27/09:30am 25.6 ESE 28 39 1006.1 - 0.0 - - - - - - -
27/09:00am 26.8 ESE 27 39 1006.3 - 33.6 - - - - - - -
27/08:30am 26.2 ESE 27 41 1006.2 - 33.6 - - - - - - -
27/08:05am 26.1 SE 30 42 1005.9 - 33.6 - - - - - - -
27/08:00am 25.9 SE 30 39 1005.7 - 33.6 - - - - - - -
27/07:30am 26.2 SE 30 41 1005.3 - 33.6 - - - - - - -
27/07:00am 25.8 SE 30 41 1005.0 - 33.6 - - - - - - -
27/06:30am 25.5 SE 29 40 1004.8 - 33.6 - - - - - - -
27/06:01am 25.0 SE 26 37 1004.8 - 33.6 - - - - - - -
27/06:00am 25.0 SE 25 33 1004.9 - 33.6 - - - - - - -
27/05:35am 24.7 ESE 27 38 1005.1 - 33.6 - - - - - - -
27/05:30am 24.9 ESE 28 38 1005.0 - 33.6 - - - - - - -
27/05:00am 25.9 SE 30 42 1004.6 - 33.6 - - - - - - -
27/04:30am 25.6 ESE 27 40 1004.5 - 33.6 - - - - - - -
27/04:00am 24.9 ESE 28 42 1004.5 - 33.6 - - - - - - -
27/03:30am 25.5 ESE 28 40 1004.5 - 31.6 - - - - - - -
27/03:03am 25.6 SE 28 41 1004.8 - 30.6 - - - - - - -
27/03:00am 25.6 SE 29 37 1004.8 - 30.6 Recent precip. - - - - - -
27/02:34am 25.0 SE 28 40 1005.2 - 30.6 - - - - - - -
27/02:30am 24.9 SE 28 37 1005.2 - 30.6 - - - - - - -
27/02:01am 25.8 SE 27 37 1005.4 - 27.0 - - - - - - -
27/02:00am 25.8 SE 28 37 1005.4 - 27.0 - - - - - - -
27/01:30am 25.9 SE 27 41 1005.7 - 26.8 - - - - - - -
27/01:00am 25.8 SE 26 38 1006.2 - 26.8 - - - - - - -
27/12:30am 25.5 SE 28 38 1006.7 - 26.8 - - - - - - -
27/12:00am 26.0 SE 26 37 1007.1 - 26.2 - - - - - - -
 
Date/Time
EST
Temp
°C
Wind Pressure Rain since
9am
mm
Weather Cloud Vis
km
Sea
Height
m
Swell
Dir  Spd
kts
Gust
kts
hPa Trend Height
m
Period
s
Dir
26/11:30pm 26.1 SE 26 37 1007.5 - 26.2 - - - - - - -
26/11:00pm 25.9 SE 26 37 1007.9 - 26.2 - - - - - - -
26/10:30pm 25.8 SE 26 38 1008.0 - 26.2 - - - - - - -
26/10:01pm 25.6 SE 25 38 1008.2 - 26.2 - - - - - - -
26/10:00pm 25.6 SE 25 35 1008.2 - 26.2 - - - - - - -
26/09:30pm 25.0 SE 26 37 1008.1 - 26.2 - - - - - - -
26/09:00pm 24.7 SE 25 38 1008.1 - 26.2 Recent precip. - - - - - -
26/08:31pm 24.9 SE 23 35 1007.8 - 24.6 - - - - - - -
26/08:30pm 25.0 SE 23 33 1007.7 - 24.4 - - - - - - -
26/08:00pm 25.4 SE 24 39 1007.3 - 23.2 - - - - - - -
26/07:30pm 24.8 SE 27 39 1007.3 - 23.2 - - - - - - -

Other Formats:

Comma delimited format used in spreadsheet applications
http://www.bom.gov.au/fwo/IDQ60701/IDQ60701.94372.axf

JavaScript Object Notation format (JSON) in row-major order
http://www.bom.gov.au/fwo/IDQ60701/IDQ60701.94372.json